Time;durP1;ratioP1;P1;durP2;ratioP2;P2;SDS_P1;SDS_P2;PMS_P1;PMS_P2;Temp;Humidity;BMP_temperature;BMP_pressure;BME280_temperature;BME280_humidity;BME280_pressure;Samples;Min_cycle;Max_cycle;Signal;HPM_P1;HPM_P2
2022/12/15 05:33:41;;;;;;;7.07;1.83;;;19.60;95.70;;;;;;4900961;29;20196;-74
2022/12/15 05:36:09;;;;;;;4.05;1.90;;;19.50;96.00;;;;;;4900648;29;20225;-76
2022/12/15 05:38:35;;;;;;;17.10;2.40;;;19.40;96.20;;;;;;4900973;29;20227;-74
2022/12/15 05:41:02;;;;;;;7.47;2.25;;;19.40;97.50;;;;;;4900321;29;20670;-75
2022/12/15 05:43:29;;;;;;;6.30;2.50;;;19.40;92.90;;;;;;4900668;29;20202;-76
2022/12/15 05:46:02;;;;;;;14.80;2.78;;;19.40;93.20;;;;;;4900515;29;20201;-76
2022/12/15 05:48:28;;;;;;;7.68;2.50;;;19.40;93.30;;;;;;4900532;29;20229;-74
2022/12/15 05:50:55;;;;;;;13.90;2.15;;;19.40;96.00;;;;;;4900139;29;20205;-74
2022/12/15 05:53:22;;;;;;;6.50;2.75;;;19.40;97.40;;;;;;4900323;29;20201;-74
2022/12/15 05:55:48;;;;;;;24.48;2.85;;;19.30;92.70;;;;;;4899954;29;20697;-73
2022/12/15 05:58:15;;;;;;;20.42;4.25;;;19.40;95.70;;;;;;4900100;29;20232;-72
2022/12/15 06:00:42;;;;;;;19.35;3.83;;;19.40;97.40;;;;;;4900087;29;20225;-75
2022/12/15 06:03:10;;;;;;;16.33;3.35;;;19.50;98.10;;;;;;4899949;29;20562;-74
2022/12/15 06:05:37;;;;;;;9.68;3.08;;;19.50;97.80;;;;;;4900119;29;20201;-74
2022/12/15 06:08:04;;;;;;;20.48;3.80;;;19.70;94.80;;;;;;4900008;29;20256;-73
2022/12/15 06:10:31;;;;;;;20.20;3.72;;;19.60;95.90;;;;;;4899721;29;20669;-73
2022/12/15 06:12:57;;;;;;;40.58;4.10;;;19.70;96.50;;;;;;4899976;29;20213;-72
2022/12/15 06:15:24;;;;;;;32.47;5.85;;;19.60;97.00;;;;;;4900605;29;20229;-72
2022/12/15 06:17:54;;;;;;;28.65;4.85;;;19.80;94.80;;;;;;4899511;29;20834;-72
2022/12/15 06:20:23;;;;;;;30.23;4.20;;;19.70;94.20;;;;;;4899803;29;20209;-72
2022/12/15 06:22:49;;;;;;;25.95;4.43;;;19.70;93.60;;;;;;4899780;29;20577;-72
2022/12/15 06:25:17;;;;;;;22.13;4.07;;;19.70;94.50;;;;;;4899736;29;20201;-72
2022/12/15 06:27:44;;;;;;;19.60;4.10;;;19.60;94.50;;;;;;4899595;29;20225;-72
2022/12/15 06:30:11;;;;;;;23.98;3.88;;;19.60;92.90;;;;;;4899624;29;20205;-72
2022/12/15 06:32:38;;;;;;;35.90;5.05;;;19.60;93.00;;;;;;4899820;29;20209;-72
2022/12/15 06:35:05;;;;;;;28.90;4.32;;;19.50;93.00;;;;;;4899172;29;20209;-72
2022/12/15 06:37:33;;;;;;;16.85;4.22;;;19.50;92.80;;;;;;4899059;29;20229;-72
2022/12/15 06:40:00;;;;;;;14.30;3.70;;;19.50;93.90;;;;;;4899459;29;20205;-72
2022/12/15 06:42:27;;;;;;;12.25;3.30;;;19.50;93.60;;;;;;4899135;29;20673;-72
2022/12/15 06:44:53;;;;;;;13.45;3.80;;;19.50;93.00;;;;;;4899371;29;20210;-72
2022/12/15 06:47:20;;;;;;;11.18;3.35;;;19.50;92.60;;;;;;4899541;29;20579;-72
2022/12/15 06:49:47;;;;;;;14.27;3.10;;;19.40;92.80;;;;;;4899328;29;20213;-72
2022/12/15 06:52:14;;;;;;;14.88;3.42;;;19.40;92.80;;;;;;4898955;29;20205;-72
2022/12/15 06:54:42;;;;;;;19.10;3.40;;;19.40;92.70;;;;;;4899474;29;20206;-72
2022/12/15 06:57:08;;;;;;;10.60;3.08;;;19.50;92.70;;;;;;4899060;29;20296;-72
2022/12/15 06:59:35;;;;;;;15.60;3.33;;;19.50;92.70;;;;;;4899008;29;20213;-72
2022/12/15 07:02:02;;;;;;;15.77;3.60;;;19.60;92.80;;;;;;4899172;29;20186;-72
2022/12/15 07:04:31;;;;;;;13.73;3.75;;;19.60;92.80;;;;;;4898748;29;20572;-72
2022/12/15 07:06:58;;;;;;;11.45;2.97;;;19.70;93.10;;;;;;4899202;29;20209;-72
2022/12/15 07:09:26;;;;;;;6.60;2.92;;;19.60;93.10;;;;;;4899002;29;20208;-72
2022/12/15 07:11:54;;;;;;;13.43;2.90;;;19.70;93.30;;;;;;4898963;29;20265;-72
2022/12/15 07:14:21;;;;;;;7.30;2.70;;;19.60;93.20;;;;;;4898911;29;20577;-73
2022/12/15 07:16:48;;;;;;;6.60;3.22;;;19.60;92.70;;;;;;4898736;29;20237;-73
2022/12/15 07:19:15;;;;;;;17.55;3.03;;;19.60;92.80;;;;;;4898827;29;20210;-73
2022/12/15 07:21:42;;;;;;;9.88;2.95;;;19.50;93.20;;;;;;4898762;29;20209;-73
2022/12/15 07:24:11;;;;;;;7.25;2.60;;;19.50;92.90;;;;;;4898763;29;20245;-73
2022/12/15 07:26:38;;;;;;;10.82;3.33;;;19.40;92.60;;;;;;4898426;29;20261;-73
2022/12/15 07:29:06;;;;;;;13.15;3.00;;;19.40;92.00;;;;;;4898586;29;20225;-73
2022/12/15 07:31:33;;;;;;;7.60;2.40;;;19.40;92.10;;;;;;4898728;29;20212;-73
2022/12/15 07:33:59;;;;;;;11.68;2.65;;;19.40;92.40;;;;;;4898653;29;20213;-73
2022/12/15 07:36:27;;;;;;;9.70;2.95;;;19.40;92.20;;;;;;4898579;29;20225;-73
2022/12/15 07:38:59;;;;;;;14.30;3.28;;;19.30;92.00;;;;;;4898545;29;20228;-73
2022/12/15 07:41:26;;;;;;;16.25;3.28;;;19.40;92.00;;;;;;4898357;29;20552;-73
2022/12/15 07:43:53;;;;;;;15.60;2.92;;;19.40;92.20;;;;;;4898554;29;20209;-73
2022/12/15 07:46:22;;;;;;;11.73;2.63;;;19.30;91.60;;;;;;4899352;29;20213;-73
2022/12/15 07:48:49;;;;;;;7.43;2.47;;;19.30;91.80;;;;;;4898483;29;20249;-73
2022/12/15 07:51:16;;;;;;;13.30;2.92;;;19.30;91.80;;;;;;4901257;29;20216;-73
2022/12/15 07:53:43;;;;;;;10.10;2.92;;;19.40;91.90;;;;;;4902487;29;20287;-73
2022/12/15 07:56:10;;;;;;;16.45;3.00;;;19.40;91.80;;;;;;4902392;29;20263;-73
2022/12/15 07:58:38;;;;;;;13.95;2.33;;;19.50;91.70;;;;;;4902686;29;20225;-73
2022/12/15 08:01:06;;;;;;;15.00;3.10;;;19.60;91.20;;;;;;4902074;29;20220;-73
2022/12/15 08:03:35;;;;;;;10.32;2.60;;;19.50;90.80;;;;;;4902302;29;20212;-73
2022/12/15 08:06:04;;;;;;;11.27;2.97;;;19.60;90.60;;;;;;4902240;29;20201;-73
2022/12/15 08:08:31;;;;;;;12.52;2.30;;;19.60;90.10;;;;;;4902122;29;20256;-73
2022/12/15 08:10:57;;;;;;;9.48;2.30;;;19.60;89.70;;;;;;4902394;29;20205;-73
2022/12/15 08:13:25;;;;;;;9.93;2.80;;;19.60;89.60;;;;;;4902328;29;20220;-73
2022/12/15 08:15:53;;;;;;;12.38;2.50;;;19.50;89.40;;;;;;4901721;29;20693;-73
2022/12/15 08:18:20;;;;;;;9.93;2.15;;;19.50;88.90;;;;;;4902191;29;20226;-73
2022/12/15 08:20:48;;;;;;;10.15;2.30;;;19.50;89.10;;;;;;4901970;29;20213;-73
2022/12/15 08:23:15;;;;;;;12.55;2.30;;;19.40;88.80;;;;;;4901864;29;20209;-73
2022/12/15 08:25:42;;;;;;;11.88;2.63;;;19.40;89.60;;;;;;4901873;29;20209;-73
2022/12/15 08:28:09;;;;;;;13.95;2.90;;;19.40;89.10;;;;;;4901766;29;20713;-73
2022/12/15 08:30:36;;;;;;;9.73;2.40;;;19.30;89.10;;;;;;4901815;29;20214;-73
2022/12/15 08:33:02;;;;;;;13.63;2.70;;;19.40;89.20;;;;;;4902601;29;20209;-73
2022/12/15 08:35:29;;;;;;;6.70;2.05;;;19.30;89.10;;;;;;4901642;29;20202;-73
2022/12/15 08:37:57;;;;;;;9.35;2.28;;;19.30;89.30;;;;;;4901847;29;20236;-73
2022/12/15 08:40:24;;;;;;;5.18;1.90;;;19.40;89.90;;;;;;4901656;29;20209;-73
2022/12/15 08:42:51;;;;;;;14.38;2.13;;;19.20;89.80;;;;;;4901587;29;20681;-73
2022/12/15 08:45:18;;;;;;;9.45;2.22;;;19.30;90.00;;;;;;4901550;29;20201;-72
2022/12/15 08:47:45;;;;;;;10.82;2.40;;;19.30;90.00;;;;;;4902294;29;20294;-72
2022/12/15 08:50:11;;;;;;;22.10;2.45;;;19.40;90.10;;;;;;4901757;29;20210;-72
2022/12/15 08:52:40;;;;;;;16.90;2.47;;;19.40;90.10;;;;;;4901425;29;20210;-72
2022/12/15 08:55:11;;;;;;;11.18;2.40;;;19.50;90.10;;;;;;4901432;29;20205;-72
2022/12/15 08:57:39;;;;;;;21.58;2.63;;;19.50;89.80;;;;;;4901239;29;20230;-72
2022/12/15 09:00:07;;;;;;;8.63;1.98;;;19.60;89.70;;;;;;4901078;29;20269;-72
2022/12/15 09:02:33;;;;;;;13.00;2.40;;;19.50;89.40;;;;;;4901076;29;20211;-72
2022/12/15 09:05:00;;;;;;;7.63;1.83;;;19.60;89.80;;;;;;4901459;29;20205;-72
2022/12/15 09:07:27;;;;;;;8.43;2.30;;;19.60;88.90;;;;;;4900831;29;20225;-72
2022/12/15 09:09:54;;;;;;;10.98;2.67;;;19.50;89.20;;;;;;4901141;29;20205;-73
2022/12/15 09:12:22;;;;;;;12.23;1.98;;;19.50;89.30;;;;;;4901102;29;20205;-73
2022/12/15 09:14:49;;;;;;;15.98;2.85;;;19.50;89.40;;;;;;4900768;29;20681;-73
2022/12/15 09:17:16;;;;;;;7.70;2.50;;;19.40;88.60;;;;;;4900886;29;20234;-73
2022/12/15 09:19:42;;;;;;;7.90;2.20;;;19.40;89.00;;;;;;4900961;29;20221;-73
2022/12/15 09:22:09;;;;;;;5.70;1.90;;;19.40;88.90;;;;;;4901180;29;20206;-73
2022/12/15 09:24:36;;;;;;;8.38;2.20;;;19.40;88.70;;;;;;4900897;29;20634;-73
2022/12/15 09:27:03;;;;;;;12.10;1.92;;;19.30;88.90;;;;;;4900780;29;20204;-73
2022/12/15 09:29:31;;;;;;;13.93;2.40;;;19.20;88.80;;;;;;4900785;29;20202;-73
2022/12/15 09:31:59;;;;;;;11.10;2.10;;;19.20;89.00;;;;;;4901055;29;20598;-73
2022/12/15 09:34:25;;;;;;;8.95;2.42;;;19.20;88.90;;;;;;4900420;29;20618;-73
2022/12/15 09:36:52;;;;;;;10.38;1.98;;;19.20;88.80;;;;;;4900550;29;20221;-73
2022/12/15 09:39:19;;;;;;;9.48;1.80;;;19.30;88.70;;;;;;4900616;29;20209;-73
2022/12/15 09:41:52;;;;;;;10.27;1.77;;;19.30;88.80;;;;;;4900614;29;20205;-73
2022/12/15 09:44:21;;;;;;;8.50;2.05;;;19.40;88.70;;;;;;4900546;29;20261;-73
2022/12/15 09:47:03;;;;;;;3.75;1.77;;;19.40;89.30;;;;;;4900404;29;20213;-73
2022/12/15 09:49:43;;;;;;;12.48;2.15;;;19.50;89.40;;;;;;4900452;29;20198;-73
2022/12/15 09:52:13;;;;;;;8.18;1.75;;;19.60;89.40;;;;;;4900418;29;20201;-73
2022/12/15 09:54:41;;;;;;;6.72;1.90;;;19.60;90.10;;;;;;4900039;29;20673;-73
2022/12/15 09:57:17;;;;;;;9.20;2.17;;;19.60;89.20;;;;;;4900176;29;20226;-73
2022/12/15 09:59:57;;;;;;;10.32;2.30;;;19.60;88.40;;;;;;4900301;29;20209;-73
2022/12/15 10:03:06;;;;;;;10.35;2.20;;;19.50;88.90;;;;;;4900254;29;20186;-73
2022/12/15 10:05:45;;;;;;;16.88;2.65;;;19.50;87.70;;;;;;4860847;29;20224;-73
2022/12/15 10:08:12;;;;;;;10.07;2.38;;;19.50;87.90;;;;;;4860604;29;20229;-73
2022/12/15 10:10:46;;;;;;;11.00;2.00;;;19.40;88.00;;;;;;4880989;29;20213;-73
2022/12/15 10:13:22;;;;;;;7.85;1.70;;;19.40;88.20;;;;;;4899244;29;20196;-73
2022/12/15 10:15:52;;;;;;;12.65;2.25;;;19.40;88.30;;;;;;4900027;29;20199;-73
2022/12/15 10:18:24;;;;;;;14.77;2.17;;;19.30;88.40;;;;;;4899521;29;20748;-73
2022/12/15 10:20:53;;;;;;;8.57;2.10;;;19.30;88.00;;;;;;4899835;29;20200;-73
2022/12/15 10:23:20;;;;;;;10.57;2.17;;;19.30;88.50;;;;;;4899807;29;20213;-73
2022/12/15 10:25:49;;;;;;;14.05;2.40;;;19.30;89.20;;;;;;4899757;29;20214;-73
2022/12/15 10:28:34;;;;;;;13.45;2.00;;;19.30;88.90;;;;;;4899617;29;20233;-73
2022/12/15 10:31:07;;;;;;;11.23;1.90;;;19.30;89.10;;;;;;4899704;29;20194;-73
2022/12/15 10:33:38;;;;;;;13.80;2.45;;;19.30;89.40;;;;;;4899672;29;20194;-73
2022/12/15 10:36:10;;;;;;;11.95;1.98;;;19.40;90.00;;;;;;4899532;29;20296;-73
2022/12/15 10:38:39;;;;;;;20.05;2.25;;;19.40;90.00;;;;;;4899185;29;20609;-73
2022/12/15 10:41:08;;;;;;;10.07;2.05;;;19.50;90.10;;;;;;4899187;29;20577;-73
2022/12/15 10:43:37;;;;;;;14.18;2.15;;;19.50;89.80;;;;;;4899451;29;20569;-73
2022/12/15 10:46:11;;;;;;;15.50;2.03;;;19.60;89.60;;;;;;4899655;29;20205;-73
2022/12/15 10:48:40;;;;;;;7.05;1.73;;;19.60;89.60;;;;;;4899450;29;20772;-73
2022/12/15 10:51:26;;;;;;;12.88;2.38;;;19.60;89.20;;;;;;4899035;29;20205;-73
2022/12/15 10:53:55;;;;;;;9.15;1.80;;;19.60;88.00;;;;;;4899500;29;20189;-73
2022/12/15 10:56:24;;;;;;;5.38;1.60;;;19.60;88.70;;;;;;4899148;29;20233;-73
2022/12/15 10:58:53;;;;;;;10.52;2.40;;;19.60;88.40;;;;;;4899479;29;20232;-73
2022/12/15 11:01:24;;;;;;;10.65;2.60;;;19.50;89.20;;;;;;4899034;29;20570;-73
2022/12/15 11:03:54;;;;;;;9.25;1.75;;;19.50;88.70;;;;;;4898841;29;20186;-73
2022/12/15 11:06:23;;;;;;;7.00;1.80;;;19.40;88.30;;;;;;4899046;29;20650;-73
2022/12/15 11:08:52;;;;;;;14.65;2.03;;;19.40;88.80;;;;;;4898967;29;20232;-73
2022/12/15 11:14:17;;;;;;;6.10;2.03;;;19.40;88.10;;;;;;4899179;29;20644;-73
2022/12/15 11:16:51;;;;;;;13.93;2.50;;;19.30;88.10;;;;;;4898864;29;20217;-73
2022/12/15 11:19:31;;;;;;;9.00;1.90;;;19.30;88.60;;;;;;4899713;29;20280;-73
2022/12/15 11:22:03;;;;;;;6.60;1.63;;;19.30;88.90;;;;;;4898869;29;20190;-73
2022/12/15 11:24:37;;;;;;;9.88;1.83;;;19.30;88.60;;;;;;4898783;29;20194;-73
2022/12/15 11:27:13;;;;;;;11.27;2.03;;;19.30;87.10;;;;;;4898722;29;20186;-73
2022/12/15 11:29:50;;;;;;;5.32;1.70;;;19.30;86.90;;;;;;4898796;29;20185;-73
2022/12/15 11:32:21;;;;;;;7.93;1.98;;;19.30;86.70;;;;;;4898754;29;20201;-73
2022/12/15 11:34:49;;;;;;;10.88;2.08;;;19.40;86.80;;;;;;4898718;29;20538;-73
2022/12/15 11:37:38;;;;;;;4.78;1.63;;;19.50;86.80;;;;;;4898795;29;20260;-73
2022/12/15 11:40:23;;;;;;;12.73;1.67;;;19.50;85.80;;;;;;4898330;29;20749;-73
2022/12/15 11:43:09;;;;;;;9.98;2.08;;;19.60;86.60;;;;;;4898766;29;20193;-75
2022/12/15 11:45:45;;;;;;;8.20;6.63;;;19.60;86.30;;;;;;4898605;29;20197;-76
2022/12/15 11:48:16;;;;;;;8.27;7.35;;;19.50;80.30;;;;;;4898181;29;20713;-75
2022/12/15 11:50:52;;;;;;;9.55;7.20;;;18.40;66.80;;;;;;4898541;29;20212;-75
2022/12/15 11:53:30;;;;;;;9.07;6.60;;;17.80;68.40;;;;;;4898032;29;20702;-75
2022/12/15 11:56:07;;;;;;;9.60;5.72;;;17.80;71.80;;;;;;4898305;29;20200;-74
2022/12/15 11:58:50;;;;;;;9.32;6.13;;;18.10;73.00;;;;;;4898049;29;20290;-74
2022/12/15 12:01:36;;;;;;;6.32;5.65;;;18.40;76.10;;;;;;4897708;29;20580;-74
2022/12/15 12:04:14;;;;;;;5.60;5.10;;;18.60;77.00;;;;;;4898469;29;20198;-74
2022/12/15 12:06:54;;;;;;;5.97;4.55;;;18.80;77.40;;;;;;4898420;29;20216;-74
2022/12/15 12:09:33;;;;;;;4.50;3.90;;;18.90;78.20;;;;;;4898160;29;20206;-74
2022/12/15 12:12:11;;;;;;;9.88;4.25;;;19.10;79.20;;;;;;4899224;29;20208;-74
2022/12/15 12:14:48;;;;;;;5.97;3.92;;;19.30;79.20;;;;;;4898147;29;20634;-74
2022/12/15 12:17:26;;;;;;;4.28;3.78;;;19.40;79.80;;;;;;4898216;29;20229;-74
2022/12/15 12:19:58;;;;;;;8.32;3.95;;;19.40;78.90;;;;;;4898420;29;20250;-74
2022/12/15 12:22:36;;;;;;;4.03;3.60;;;19.50;79.30;;;;;;4898341;29;20194;-74
2022/12/15 12:25:08;;;;;;;6.25;3.35;;;19.50;79.60;;;;;;4898303;29;20190;-73
2022/12/15 12:27:40;;;;;;;4.20;3.38;;;19.50;78.90;;;;;;4898235;29;20222;-74
2022/12/15 12:30:13;;;;;;;9.32;3.20;;;19.50;72.80;;;;;;4898004;29;20197;-74
2022/12/15 12:32:48;;;;;;;2.88;2.58;;;19.50;73.30;;;;;;4898271;29;20190;-74
2022/12/15 12:35:18;;;;;;;2.67;2.55;;;19.50;74.00;;;;;;4898259;29;20198;-74
2022/12/15 12:37:51;;;;;;;3.65;3.13;;;19.50;76.20;;;;;;4901270;29;20255;-75
2022/12/15 12:40:24;;;;;;;2.90;2.60;;;19.50;75.40;;;;;;4901838;29;20261;-74
2022/12/15 12:42:54;;;;;;;7.13;2.67;;;19.40;76.70;;;;;;4901840;29;20197;-76
2022/12/15 12:45:26;;;;;;;2.78;2.58;;;19.40;78.70;;;;;;4901892;29;20210;-75
2022/12/15 12:47:55;;;;;;;2.95;2.53;;;19.40;78.80;;;;;;4901553;29;20229;-75
2022/12/15 12:50:24;;;;;;;3.38;2.47;;;19.30;77.00;;;;;;4901227;29;20692;-75
2022/12/15 12:52:55;;;;;;;3.80;2.72;;;19.30;78.10;;;;;;4901442;29;20209;-75
2022/12/15 12:55:27;;;;;;;3.22;2.38;;;19.30;78.80;;;;;;4902643;29;20209;-75
2022/12/15 12:57:55;;;;;;;4.68;2.25;;;19.30;78.20;;;;;;4902376;29;20327;-76
2022/12/15 13:00:24;;;;;;;3.78;2.70;;;19.20;74.90;;;;;;4901842;29;20213;-74
2022/12/15 13:03:16;;;;;;;2.20;2.10;;;19.20;75.60;;;;;;4901800;29;20213;-75
2022/12/15 13:05:50;;;;;;;2.33;2.22;;;19.10;75.80;;;;;;4901280;29;20193;-76
2022/12/15 13:08:47;;;;;;;2.35;2.20;;;19.00;74.10;;;;;;4900896;29;20775;-76
2022/12/15 13:11:55;;;;;;;2.20;2.08;;;19.00;75.20;;;;;;4901201;29;20213;-76
2022/12/15 13:14:29;;;;;;;2.90;2.35;;;18.90;75.30;;;;;;4901462;29;20249;-76
2022/12/15 13:16:57;;;;;;;2.92;2.72;;;19.00;76.00;;;;;;4900961;29;20197;-76
2022/12/15 13:20:15;;;;;;;2.33;2.22;;;18.90;77.40;;;;;;4900687;29;20206;-76
2022/12/15 13:22:42;;;;;;;2.40;2.17;;;18.90;76.50;;;;;;4901166;29;20205;-76
2022/12/15 13:25:34;;;;;;;2.05;1.95;;;18.80;78.10;;;;;;4900885;29;20213;-75
2022/12/15 13:28:15;;;;;;;3.00;2.30;;;18.80;79.30;;;;;;4900738;29;20222;-75
2022/12/15 13:31:27;;;;;;;2.63;2.30;;;18.80;79.30;;;;;;4900868;29;20212;-75
2022/12/15 13:34:03;;;;;;;2.30;2.20;;;18.70;81.40;;;;;;4842863;29;20264;-75
2022/12/15 13:36:49;;;;;;;2.72;1.88;;;18.70;69.60;;;;;;4890675;29;20782;-75
2022/12/15 13:39:58;;;;;;;2.58;2.40;;;18.70;71.20;;;;;;4900800;29;20210;-75
2022/12/15 13:42:34;;;;;;;2.40;2.30;;;18.70;71.40;;;;;;4900615;29;20190;-74
2022/12/15 13:45:35;;;;;;;2.20;2.05;;;18.70;76.40;;;;;;4900695;29;20194;-74
2022/12/15 13:48:12;;;;;;;2.55;2.35;;;18.70;75.30;;;;;;4897008;29;20890;-74
2022/12/15 13:50:45;;;;;;;1.98;1.88;;;18.70;77.40;;;;;;4900451;29;20638;-73
2022/12/15 13:53:20;;;;;;;1.75;1.75;;;18.70;76.30;;;;;;4900405;29;20205;-73
2022/12/15 13:55:58;;;;;;;2.10;2.00;;;18.70;75.60;;;;;;4900394;29;20189;-73
2022/12/15 13:58:25;;;;;;;4.05;2.35;;;18.70;74.50;;;;;;4900303;29;20237;-74
2022/12/15 15:05:40;;;;;;;2.05;1.95;;;18.40;66.30;;;;;;5238611;23;20229;-73
2022/12/15 15:08:11;;;;;;;2.83;2.17;;;18.50;67.10;;;;;;4899628;29;20241;-72
2022/12/15 15:10:37;;;;;;;2.13;2.03;;;18.40;67.00;;;;;;4899284;29;20190;-72
2022/12/15 15:13:04;;;;;;;9.52;2.85;;;18.40;67.00;;;;;;4900096;29;20677;-71
2022/12/15 15:15:31;;;;;;;6.82;3.38;;;18.50;68.00;;;;;;4903492;29;20727;-72
2022/12/15 15:18:00;;;;;;;14.20;2.78;;;18.70;68.80;;;;;;4903015;29;20225;-72
2022/12/15 15:20:29;;;;;;;13.55;2.83;;;18.70;68.60;;;;;;4904448;29;20212;-72
2022/12/15 15:23:12;;;;;;;5.60;2.70;;;18.70;69.30;;;;;;4902222;29;20206;-72
2022/12/15 15:25:41;;;;;;;9.15;2.35;;;18.60;69.50;;;;;;4902079;29;20221;-71
2022/12/15 15:28:22;;;;;;;9.38;2.90;;;18.80;70.00;;;;;;4900494;29;20216;-71
2022/12/15 15:30:51;;;;;;;5.43;2.60;;;18.70;70.10;;;;;;4899412;29;20189;-72
2022/12/15 15:33:18;;;;;;;15.00;2.80;;;18.60;70.30;;;;;;4899057;29;20209;-72
2022/12/15 15:35:49;;;;;;;8.80;3.05;;;18.70;70.30;;;;;;4898987;29;20233;-72
2022/12/15 15:38:22;;;;;;;5.38;2.60;;;18.70;69.90;;;;;;4921576;23;20256;-70
2022/12/15 15:40:51;;;;;;;7.85;2.58;;;18.70;69.80;;;;;;4898967;29;20229;-69
2022/12/15 15:43:18;;;;;;;9.02;2.58;;;18.60;69.60;;;;;;4898911;29;20577;-68
2022/12/15 15:45:45;;;;;;;5.70;2.53;;;18.60;70.20;;;;;;4899916;29;20699;-70
2022/12/15 15:48:17;;;;;;;13.27;3.10;;;18.60;71.50;;;;;;4900177;29;20221;-70
2022/12/15 15:50:46;;;;;;;10.02;2.47;;;18.70;72.70;;;;;;4900194;29;20193;-69
2022/12/15 15:53:16;;;;;;;6.90;2.40;;;19.00;73.40;;;;;;4900342;29;20240;-69
2022/12/15 15:55:45;;;;;;;5.55;2.63;;;19.20;73.90;;;;;;4899708;29;20212;-70
2022/12/15 15:58:12;;;;;;;9.93;2.42;;;19.40;73.90;;;;;;4898849;29;20236;-70
2022/12/15 16:00:40;;;;;;;5.88;2.55;;;19.50;74.00;;;;;;4898388;29;20217;-70
2022/12/15 16:03:07;;;;;;;3.47;2.05;;;19.60;73.90;;;;;;4898467;29;20205;-70
2022/12/15 16:05:34;;;;;;;16.33;2.95;;;19.60;74.10;;;;;;4898374;29;20201;-68
2022/12/15 16:08:01;;;;;;;8.73;2.35;;;19.80;75.10;;;;;;4898342;29;20221;-68
2022/12/15 16:10:28;;;;;;;6.63;2.33;;;19.80;74.10;;;;;;4898369;29;20217;-68
2022/12/15 16:12:59;;;;;;;4.78;2.15;;;19.90;73.90;;;;;;4902016;29;20209;-68
2022/12/15 16:15:28;;;;;;;10.60;2.70;;;19.90;73.60;;;;;;4902211;29;20289;-68
2022/12/15 16:17:55;;;;;;;7.97;2.70;;;19.90;73.30;;;;;;4901677;29;20236;-68
2022/12/15 16:20:24;;;;;;;8.55;2.70;;;19.90;73.00;;;;;;4901762;29;20216;-68
2022/12/15 16:22:54;;;;;;;11.65;2.42;;;20.00;72.90;;;;;;4901995;29;20206;-69
2022/12/15 16:25:28;;;;;;;6.70;2.63;;;20.00;72.80;;;;;;4901633;29;20688;-69
2022/12/15 16:27:57;;;;;;;8.05;2.25;;;20.00;73.20;;;;;;4901890;29;20228;-69
2022/12/15 16:30:25;;;;;;;24.55;2.42;;;20.10;73.80;;;;;;4901882;29;20229;-69
2022/12/15 16:32:53;;;;;;;7.72;1.98;;;20.20;73.90;;;;;;4901846;29;20209;-69
2022/12/15 16:35:20;;;;;;;8.35;2.20;;;20.30;73.90;;;;;;4901483;29;20704;-69
2022/12/15 16:37:47;;;;;;;11.90;2.38;;;20.30;73.70;;;;;;4901230;29;20720;-69
2022/12/15 16:40:16;;;;;;;4.30;1.88;;;20.30;73.40;;;;;;4901337;29;20669;-69
2022/12/15 16:42:45;;;;;;;4.85;2.63;;;20.30;73.20;;;;;;4901677;29;20206;-69
2022/12/15 16:45:18;;;;;;;5.03;2.15;;;20.40;73.30;;;;;;4901303;29;20677;-69
2022/12/15 16:47:45;;;;;;;7.03;2.22;;;20.40;73.80;;;;;;4901539;29;20233;-69
2022/12/15 16:50:16;;;;;;;6.78;2.50;;;20.90;78.60;;;;;;4901462;29;20214;-68
2022/12/15 16:52:45;;;;;;;12.23;2.35;;;20.50;75.30;;;;;;4901627;29;20189;-71
2022/12/15 16:55:19;;;;;;;29.52;2.75;;;20.50;69.40;;;;;;4902224;29;20210;-71
2022/12/15 16:57:47;;;;;;;10.80;2.60;;;20.60;70.60;;;;;;4901599;29;20230;-71
2022/12/15 17:00:21;;;;;;;14.02;3.67;;;20.70;72.10;;;;;;4904288;29;20205;-70
2022/12/15 17:02:48;;;;;;;9.30;2.55;;;20.80;72.50;;;;;;4903615;29;20201;-70
2022/12/15 17:05:16;;;;;;;23.88;3.10;;;20.80;72.50;;;;;;4903319;29;20213;-70
2022/12/15 17:07:45;;;;;;;8.88;2.95;;;20.80;72.80;;;;;;4904063;29;20221;-72
2022/12/15 17:10:18;;;;;;;9.98;2.45;;;20.90;72.90;;;;;;4904326;29;20205;-71
2022/12/15 17:12:46;;;;;;;5.00;3.10;;;21.00;73.10;;;;;;4904036;29;20218;-69
2022/12/15 17:15:19;;;;;;;9.30;2.95;;;20.90;73.00;;;;;;4903238;29;20216;-69
2022/12/15 17:17:46;;;;;;;11.65;3.22;;;20.90;73.10;;;;;;4900923;29;20225;-71
2022/12/15 17:20:16;;;;;;;6.82;2.75;;;20.90;72.90;;;;;;4900962;29;20205;-72
2022/12/15 17:22:44;;;;;;;7.80;3.05;;;20.80;73.00;;;;;;4900812;29;20224;-72
2022/12/15 17:25:18;;;;;;;8.02;3.03;;;20.90;71.90;;;;;;4901109;29;20210;-72
2022/12/15 17:27:45;;;;;;;7.68;2.97;;;20.80;71.90;;;;;;4901039;29;20229;-72
2022/12/15 17:30:14;;;;;;;11.77;3.13;;;20.90;71.90;;;;;;4900801;29;20213;-72
2022/12/15 17:32:42;;;;;;;3.13;2.38;;;20.90;71.40;;;;;;4900789;29;20209;-72
2022/12/15 17:35:10;;;;;;;4.40;2.60;;;20.90;71.50;;;;;;4900797;29;20217;-72
2022/12/15 17:37:37;;;;;;;7.88;2.58;;;20.90;71.50;;;;;;4900533;29;20320;-72
2022/12/15 17:40:13;;;;;;;3.08;2.38;;;21.00;71.20;;;;;;4900405;29;20681;-72
2022/12/15 17:42:39;;;;;;;8.63;2.92;;;20.90;70.70;;;;;;4900667;29;20699;-72
2022/12/15 17:45:17;;;;;;;7.85;2.88;;;21.00;70.80;;;;;;4900699;29;20216;-70
2022/12/15 17:47:45;;;;;;;5.60;2.08;;;20.90;70.20;;;;;;4900561;29;20629;-70
2022/12/15 17:50:12;;;;;;;6.53;2.42;;;20.90;70.70;;;;;;4900506;29;20197;-70
2022/12/15 17:52:40;;;;;;;4.03;2.30;;;20.90;70.60;;;;;;4900478;29;20241;-71
2022/12/15 17:55:20;;;;;;;4.45;2.17;;;21.00;70.70;;;;;;4900475;29;20233;-71
2022/12/15 17:57:47;;;;;;;5.10;1.98;;;21.00;69.60;;;;;;4900366;29;20229;-71
2022/12/15 18:00:24;;;;;;;5.47;2.78;;;21.10;70.70;;;;;;4900229;29;20256;-71
2022/12/15 18:02:53;;;;;;;11.48;3.10;;;21.10;71.30;;;;;;4900486;29;20197;-70
2022/12/15 18:05:20;;;;;;;6.40;2.90;;;21.20;72.50;;;;;;4900198;29;20242;-70
2022/12/15 18:07:50;;;;;;;10.65;2.35;;;21.30;72.70;;;;;;4900067;29;20226;-70
2022/12/15 18:10:26;;;;;;;4.35;2.47;;;21.30;72.90;;;;;;4901605;29;20198;-70
2022/12/15 18:12:53;;;;;;;5.53;2.50;;;21.30;73.50;;;;;;4903279;29;20193;-70
2022/12/15 18:15:23;;;;;;;11.35;3.17;;;21.40;73.90;;;;;;4902841;29;20209;-70
2022/12/15 18:17:51;;;;;;;5.38;2.25;;;21.30;73.70;;;;;;4902471;29;20229;-70
2022/12/15 18:20:18;;;;;;;3.95;2.53;;;21.30;74.10;;;;;;4902245;29;20225;-70
2022/12/15 18:22:47;;;;;;;3.95;2.17;;;21.40;74.40;;;;;;4902386;29;20210;-70
2022/12/15 18:25:16;;;;;;;8.68;2.92;;;21.40;74.30;;;;;;4901862;29;20206;-71
2022/12/15 18:27:43;;;;;;;7.38;3.00;;;21.40;74.30;;;;;;4902820;29;20267;-71
2022/12/15 18:30:15;;;;;;;9.30;3.17;;;21.40;75.00;;;;;;4902744;29;20233;-71
2022/12/15 18:32:42;;;;;;;5.03;3.17;;;21.40;75.50;;;;;;4902629;29;20642;-70
2022/12/15 18:35:16;;;;;;;5.65;2.92;;;21.40;75.30;;;;;;4900788;29;20206;-69
2022/12/15 18:37:44;;;;;;;6.50;2.97;;;21.40;75.30;;;;;;4902450;29;20267;-72
2022/12/15 18:40:14;;;;;;;5.55;3.35;;;21.40;76.00;;;;;;4902498;29;20226;-72
2022/12/15 18:42:42;;;;;;;8.13;3.00;;;21.50;76.30;;;;;;4902403;29;20212;-72
2022/12/15 18:45:16;;;;;;;3.75;2.80;;;21.60;78.20;;;;;;4901878;29;20205;-72
2022/12/15 18:47:43;;;;;;;22.67;3.88;;;21.60;85.20;;;;;;4902339;29;20225;-72
2022/12/15 18:50:15;;;;;;;5.25;3.17;;;21.50;66.40;;;;;;4902036;29;20634;-71
2022/12/15 18:52:42;;;;;;;9.27;3.53;;;21.60;66.60;;;;;;4902658;29;20194;-72
2022/12/15 18:55:16;;;;;;;16.63;4.05;;;21.60;66.00;;;;;;4902859;29;20221;-72
2022/12/15 18:57:43;;;;;;;8.48;3.58;;;21.50;65.80;;;;;;4903420;29;20230;-73
2022/12/15 19:00:23;;;;;;;6.13;3.33;;;21.50;65.80;;;;;;4904215;29;20225;-69
2022/12/15 19:02:51;;;;;;;13.48;3.85;;;21.40;65.70;;;;;;4902752;29;20218;-69
2022/12/15 19:05:31;;;;;;;6.25;3.05;;;21.50;66.00;;;;;;4902666;29;20205;-70
2022/12/15 19:08:01;;;;;;;12.32;3.85;;;21.50;65.90;;;;;;4903726;29;20237;-69
2022/12/15 19:10:30;;;;;;;7.75;2.67;;;21.50;66.30;;;;;;4902452;29;20197;-71
2022/12/15 19:12:57;;;;;;;12.68;3.65;;;21.50;66.70;;;;;;4903926;29;20201;-69
2022/12/15 19:15:23;;;;;;;10.07;3.42;;;21.50;67.00;;;;;;4904054;29;20565;-69
2022/12/15 19:23:21;;;;;;;6.47;3.78;;;21.50;67.30;;;;;;4904577;29;20196;-70
2022/12/15 19:25:49;;;;;;;9.10;3.65;;;21.60;68.40;;;;;;4904514;29;20209;-69
2022/12/15 19:28:18;;;;;;;10.05;3.47;;;21.60;69.00;;;;;;4904515;29;20240;-70
2022/12/15 19:30:45;;;;;;;7.20;3.60;;;21.60;69.50;;;;;;4903495;29;20587;-69
2022/12/15 19:33:13;;;;;;;15.20;3.78;;;21.70;76.30;;;;;;4904518;29;20201;-70
2022/12/15 19:35:43;;;;;;;9.40;3.38;;;21.70;74.80;;;;;;4904369;29;20560;-70
2022/12/15 19:38:20;;;;;;;5.88;3.22;;;21.70;72.60;;;;;;4903913;29;20229;-69
2022/12/15 19:40:47;;;;;;;11.27;3.63;;;21.70;73.00;;;;;;4901539;29;20549;-69
2022/12/15 19:43:15;;;;;;;14.52;3.38;;;21.80;73.60;;;;;;4899814;29;20205;-70
2022/12/15 19:45:42;;;;;;;11.82;3.05;;;21.70;75.00;;;;;;4899882;29;20348;-69
2022/12/15 19:48:10;;;;;;;7.25;3.72;;;21.80;73.40;;;;;;4901505;29;20756;-69